createdAt,value
2018-07-23T00:00:06.780Z,95495.55
2018-07-23T00:02:35.317Z,95492.55
2018-07-23T00:05:06.940Z,95492.98
2018-07-23T00:07:35.486Z,95489.53
2018-07-23T00:10:04.066Z,95486.09
2018-07-23T00:12:32.627Z,95486.11
2018-07-23T00:15:01.175Z,95486.50
2018-07-23T00:17:29.699Z,95484.56
2018-07-23T00:19:58.238Z,95487.01
2018-07-23T00:22:26.769Z,95491.30
2018-07-23T00:24:55.320Z,95493.09
2018-07-23T00:27:23.835Z,95492.20
2018-07-23T00:29:52.381Z,95488.78
2018-07-23T00:32:23.987Z,95492.59
2018-07-23T00:34:53.578Z,95490.12
2018-07-23T00:37:22.132Z,95490.45
2018-07-23T00:39:53.999Z,95487.61
2018-07-23T00:42:22.548Z,95484.25
2018-07-23T00:44:52.048Z,95488.39
2018-07-23T00:47:20.588Z,95492.79
2018-07-23T00:49:50.171Z,95492.44
2018-07-23T00:52:25.806Z,95490.05
2018-07-23T00:54:58.451Z,95486.00
2018-07-23T00:57:26.985Z,95479.19
2018-07-23T01:00:04.247Z,95485.41
2018-07-23T01:02:32.789Z,95486.58
2018-07-23T01:05:06.727Z,95486.08
2018-07-23T01:07:35.256Z,95485.91
2018-07-23T01:10:14.438Z,95485.83
2018-07-23T01:12:42.967Z,95483.48
2018-07-23T01:15:14.897Z,95479.34
2018-07-23T01:17:43.432Z,95482.22
2018-07-23T01:20:19.612Z,95480.20
2018-07-23T01:22:52.037Z,95484.48
2018-07-23T01:25:20.575Z,95483.63
2018-07-23T01:27:50.156Z,95482.04
2018-07-23T01:30:20.642Z,95486.17
2018-07-23T01:32:49.177Z,95490.12
2018-07-23T01:35:19.648Z,95492.38
2018-07-23T01:37:49.184Z,95487.37
2018-07-23T01:40:17.709Z,95486.29
2018-07-23T01:42:46.243Z,95488.19
2018-07-23T01:45:20.266Z,95491.66
2018-07-23T01:47:48.796Z,95488.79
2018-07-23T01:50:19.282Z,95488.93
2018-07-23T01:52:47.804Z,95486.16
2018-07-23T01:55:16.335Z,95483.42
2018-07-23T01:57:45.485Z,95477.47
2018-07-23T02:00:16.032Z,95474.53
2018-07-23T02:02:48.077Z,95474.93
2018-07-23T02:05:16.633Z,95478.74
2018-07-23T02:07:47.167Z,95473.84
2018-07-23T02:14:09.089Z,95474.95
2018-07-23T02:16:38.185Z,95474.73
2018-07-23T02:19:07.257Z,95475.70
2018-07-23T02:26:49.867Z,95471.71
2018-07-23T02:29:20.873Z,95468.36
2018-07-23T02:31:49.949Z,95471.72
2018-07-23T02:34:19.990Z,95469.41
2018-07-23T02:36:50.039Z,95468.91
2018-07-23T02:39:19.110Z,95465.77
2018-07-23T02:41:49.143Z,95471.83
2018-07-23T02:44:19.110Z,95473.83
2018-07-23T02:46:48.171Z,95475.41
2018-07-23T02:51:53.030Z,95475.56
2018-07-23T02:54:22.102Z,95472.80
2018-07-23T02:56:51.182Z,95478.86
2018-07-23T03:01:55.981Z,95477.25
2018-07-23T03:04:25.051Z,95479.02
2018-07-23T03:06:54.109Z,95484.64
2018-07-23T03:09:23.178Z,95491.94
2018-07-23T03:11:52.264Z,95495.60
2018-07-23T03:14:21.394Z,95500.47
2018-07-23T03:16:50.461Z,95502.44
2018-07-23T03:21:55.451Z,95499.98
2018-07-23T03:24:26.340Z,95503.87
2018-07-23T03:26:55.433Z,95506.45
2018-07-23T03:29:24.498Z,95507.52
2018-07-23T03:32:02.957Z,95504.95
2018-07-23T03:34:33.217Z,95503.48
2018-07-23T03:37:02.290Z,95505.69
2018-07-23T03:39:33.332Z,95513.30
2018-07-23T03:42:10.013Z,95518.31
2018-07-23T03:47:14.879Z,95521.86
2018-07-23T03:49:43.989Z,95528.77
2018-07-23T03:52:13.047Z,95526.22
2018-07-23T03:54:42.737Z,95527.34
2018-07-23T03:57:11.805Z,95526.66
2018-07-23T03:59:45.229Z,95532.05
2018-07-23T04:02:18.021Z,95529.52
2018-07-23T04:04:47.128Z,95529.69
2018-07-23T04:07:16.206Z,95531.84
2018-07-23T04:09:45.294Z,95538.14
2018-07-23T04:12:14.354Z,95539.47
2018-07-23T04:14:43.515Z,95542.61
2018-07-23T04:17:12.597Z,95547.00
2018-07-23T04:19:41.785Z,95546.27
2018-07-23T04:22:10.847Z,95545.56
2018-07-23T04:24:39.930Z,95546.80
2018-07-23T04:27:09.918Z,95546.56
2018-07-23T04:29:38.986Z,95549.33
2018-07-23T04:32:08.102Z,95557.63
2018-07-23T04:34:38.245Z,95559.64
2018-07-23T04:37:08.362Z,95562.04
2018-07-23T04:39:37.426Z,95568.75
2018-07-23T04:44:42.490Z,95569.64
2018-07-23T04:47:12.579Z,95571.80
2018-07-23T04:49:42.613Z,95571.52
2018-07-23T04:52:12.646Z,95574.19
2018-07-23T04:57:17.497Z,95564.89
2018-07-23T05:02:22.357Z,95568.88
2018-07-23T05:04:51.427Z,95567.31
2018-07-23T05:07:20.498Z,95567.43
2018-07-23T05:09:49.816Z,95571.70
2018-07-23T05:12:18.856Z,95565.68
2018-07-23T05:14:48.854Z,95567.98
2018-07-23T05:17:17.925Z,95571.20
2018-07-23T05:19:46.998Z,95574.08
2018-07-23T05:22:16.072Z,95579.79
2018-07-23T05:24:45.149Z,95580.51
2018-07-23T05:27:15.120Z,95580.21
2018-07-23T05:29:44.437Z,95583.09
2018-07-23T05:32:13.509Z,95582.36
2018-07-23T05:34:42.592Z,95583.97
2018-07-23T05:39:47.495Z,95587.77
2018-07-23T05:42:16.577Z,95589.23
2018-07-23T05:44:46.033Z,95587.41
2018-07-23T05:47:15.109Z,95585.39
2018-07-23T05:52:19.677Z,95573.63
2018-07-23T05:57:25.739Z,95579.09
2018-07-23T05:59:54.849Z,95585.91
2018-07-23T06:02:23.893Z,95579.81
2018-07-23T06:04:52.963Z,95584.38
2018-07-23T06:07:22.208Z,95582.93
2018-07-23T06:09:51.267Z,95581.66
2018-07-23T06:12:21.277Z,95587.43
2018-07-23T06:14:50.438Z,95588.61
2018-07-23T06:17:19.685Z,95590.16
2018-07-23T06:22:25.664Z,95592.34
2018-07-23T06:27:30.774Z,95592.16
2018-07-23T06:29:59.903Z,95588.42
2018-07-23T06:32:28.941Z,95590.83
2018-07-23T06:34:58.325Z,95590.33
2018-07-23T06:37:28.522Z,95591.56
2018-07-23T06:39:57.581Z,95599.16
2018-07-23T06:42:26.641Z,95600.40
2018-07-23T06:44:56.074Z,95602.59
2018-07-23T06:47:26.725Z,95599.14
2018-07-23T06:49:56.799Z,95612.95
2018-07-23T06:52:25.876Z,95611.67
2018-07-23T06:54:55.427Z,95610.73
2018-07-23T06:57:27.980Z,95614.14
2018-07-23T06:59:57.057Z,95621.44
2018-07-23T07:07:40.781Z,95614.77
2018-07-23T07:10:15.092Z,95616.84
2018-07-23T07:12:49.044Z,95623.38
2018-07-23T07:15:22.924Z,95623.87
2018-07-23T07:23:03.641Z,95632.44
2018-07-23T07:25:32.963Z,95626.77
2018-07-23T07:30:37.733Z,95635.36
2018-07-23T07:33:06.989Z,95635.88
2018-07-23T07:35:36.067Z,95637.59
2018-07-23T07:38:05.197Z,95638.55
2018-07-23T07:40:34.711Z,95633.08
2018-07-23T07:43:03.775Z,95633.91
2018-07-23T07:45:32.834Z,95636.25
2018-07-23T07:48:01.930Z,95634.20
2018-07-23T07:50:30.999Z,95637.48
2018-07-23T07:53:00.981Z,95642.23
2018-07-23T07:55:31.013Z,95641.08
2018-07-23T07:58:00.250Z,95648.20
2018-07-23T08:00:29.299Z,95641.83
2018-07-23T08:02:58.365Z,95640.15
2018-07-23T08:05:27.720Z,95639.17
2018-07-23T08:07:58.392Z,95634.31
2018-07-23T08:10:27.467Z,95637.76
2018-07-23T08:15:32.332Z,95642.96
2018-07-23T08:18:01.413Z,95646.59
2018-07-23T08:23:06.283Z,95654.20
2018-07-23T08:25:36.273Z,95651.58
2018-07-23T08:28:05.521Z,95653.03
2018-07-23T08:30:36.469Z,95653.06
2018-07-23T08:33:06.551Z,95658.13
2018-07-23T08:35:35.610Z,95661.79
2018-07-23T08:40:40.472Z,95661.98
2018-07-23T08:45:45.642Z,95668.09
2018-07-23T08:48:14.795Z,95664.41
2018-07-23T08:50:43.867Z,95659.52
2018-07-23T08:53:13.133Z,95663.59
2018-07-23T08:55:42.338Z,95662.77
2018-07-23T08:58:11.383Z,95662.54
2018-07-23T09:00:40.455Z,95667.93
2018-07-23T09:03:09.878Z,95668.75
2018-07-23T09:05:38.950Z,95671.77
2018-07-23T09:08:08.024Z,95670.36
2018-07-23T09:10:37.359Z,95673.55
2018-07-23T09:13:06.426Z,95671.30
2018-07-23T09:15:35.497Z,95674.16
2018-07-23T09:18:04.588Z,95677.67
2018-07-23T09:20:34.039Z,95676.75
2018-07-23T09:23:03.090Z,95675.38
2018-07-23T09:25:32.155Z,95682.23
2018-07-23T09:28:01.586Z,95680.58
2018-07-23T09:30:31.589Z,95681.91
2018-07-23T09:33:06.191Z,95679.50
2018-07-23T09:35:36.493Z,95679.94
2018-07-23T09:38:07.490Z,95671.67
2018-07-23T09:43:12.641Z,95675.53
2018-07-23T09:45:41.787Z,95674.61
2018-07-23T09:48:10.817Z,95672.41
2018-07-23T09:50:40.243Z,95674.80
2018-07-23T09:53:10.289Z,95672.45
2018-07-23T09:55:40.354Z,95672.98
2018-07-23T09:58:10.466Z,95668.17
2018-07-23T10:03:15.419Z,95674.51
2018-07-23T10:05:45.394Z,95672.81
2018-07-23T10:08:14.504Z,95668.88
2018-07-23T10:13:19.754Z,95671.66
2018-07-23T10:15:49.785Z,95663.80
2018-07-23T10:18:18.860Z,95661.16
2018-07-23T10:20:47.934Z,95659.37
2018-07-23T10:23:17.270Z,95654.81
2018-07-23T10:25:46.332Z,95651.82
2018-07-23T10:28:15.390Z,95649.55
2018-07-23T10:30:44.725Z,95651.16
2018-07-23T10:33:13.781Z,95646.55
2018-07-23T10:38:18.561Z,95644.92
2018-07-23T10:43:23.319Z,95641.16
2018-07-23T10:45:53.333Z,95645.70
2018-07-23T10:48:22.414Z,95646.42
2018-07-23T10:50:52.697Z,95644.87
2018-07-23T10:53:21.734Z,95646.02
2018-07-23T10:55:51.755Z,95642.02
2018-07-23T10:58:21.774Z,95648.97
2018-07-23T11:00:50.994Z,95642.43
2018-07-23T11:03:20.049Z,95646.42
2018-07-23T11:05:49.113Z,95645.67
2018-07-23T11:08:18.178Z,95642.66
2018-07-23T11:10:47.249Z,95639.06
2018-07-23T11:13:16.313Z,95639.42
2018-07-23T11:15:45.565Z,95626.27
2018-07-23T11:18:14.710Z,95635.41
2018-07-23T11:20:43.780Z,95631.96
2018-07-23T11:23:12.833Z,95631.80
2018-07-23T11:28:17.739Z,95633.25
2018-07-23T11:30:47.734Z,95635.45
2018-07-23T11:33:17.050Z,95635.38
2018-07-23T11:35:47.115Z,95637.86
2018-07-23T11:38:16.184Z,95632.80
2018-07-23T11:40:46.193Z,95627.41
2018-07-23T11:43:15.325Z,95626.27
2018-07-23T11:45:45.334Z,95625.13
2018-07-23T11:48:14.381Z,95624.06
2018-07-23T11:53:19.392Z,95623.81
2018-07-23T11:55:48.557Z,95627.25
2018-07-23T11:58:17.637Z,95623.44
2018-07-23T12:00:46.739Z,95625.70
2018-07-23T12:03:15.781Z,95624.09
2018-07-23T12:05:45.136Z,95625.64
2018-07-23T12:08:14.198Z,95627.81
2018-07-23T12:10:45.214Z,95626.52
2018-07-23T12:13:14.283Z,95623.33
2018-07-23T12:15:43.501Z,95619.33
2018-07-23T12:18:12.606Z,95618.05
2018-07-23T12:20:42.669Z,95618.36
2018-07-23T12:25:47.528Z,95607.62
2018-07-23T12:28:16.939Z,95608.03
2018-07-23T12:30:46.169Z,95607.76
2018-07-23T12:33:15.209Z,95616.25
2018-07-23T12:38:20.210Z,95605.88
2018-07-23T12:40:49.260Z,95605.16
2018-07-23T12:43:20.579Z,95606.87
2018-07-23T12:45:49.628Z,95606.68
2018-07-23T12:48:18.725Z,95605.78
2018-07-23T12:50:47.885Z,95606.67
2018-07-23T12:53:16.940Z,95611.08
2018-07-23T12:55:46.026Z,95610.06
2018-07-23T13:00:50.789Z,95601.70
2018-07-23T13:03:19.849Z,95604.33
2018-07-23T13:05:49.021Z,95605.08
2018-07-23T13:08:18.173Z,95604.19
2018-07-23T13:10:47.218Z,95601.58
2018-07-23T13:13:16.599Z,95604.72
2018-07-23T13:15:46.679Z,95605.08
2018-07-23T13:18:15.768Z,95613.02
2018-07-23T13:20:44.834Z,95611.31
2018-07-23T13:23:14.251Z,95604.84
2018-07-23T13:25:43.342Z,95604.98
2018-07-23T13:28:12.387Z,95605.43
2018-07-23T13:30:43.414Z,95604.09
2018-07-23T13:33:14.822Z,95604.94
2018-07-23T13:35:44.053Z,95601.98
2018-07-23T13:38:16.556Z,95601.20
2018-07-23T13:43:21.798Z,95597.98
2018-07-23T13:45:50.883Z,95591.13
2018-07-23T13:50:56.240Z,95591.23
2018-07-23T13:53:32.431Z,95596.84
2018-07-23T13:56:06.382Z,95600.73
2018-07-23T13:58:35.424Z,95598.17
2018-07-23T14:03:44.286Z,95595.20
2018-07-23T14:06:15.323Z,95590.30
2018-07-23T14:08:44.395Z,95583.73
2018-07-23T14:11:13.440Z,95583.70
2018-07-23T14:13:42.518Z,95581.02
2018-07-23T14:16:12.674Z,95577.06
2018-07-23T14:18:42.662Z,95580.52
2018-07-23T14:21:13.185Z,95572.95
2018-07-23T14:23:43.169Z,95566.97
2018-07-23T14:26:12.255Z,95569.28
2018-07-23T14:28:41.295Z,95563.23
2018-07-23T14:31:10.723Z,95564.16
2018-07-23T14:33:43.267Z,95570.12
2018-07-23T14:36:12.451Z,95567.84
2018-07-23T14:38:41.581Z,95566.70
2018-07-23T14:41:10.565Z,95563.20
2018-07-23T14:43:39.673Z,95559.41
2018-07-23T14:46:08.721Z,95552.97
2018-07-23T14:48:37.777Z,95553.80
2018-07-23T14:51:07.128Z,95551.91
2018-07-23T14:53:37.317Z,95548.58
2018-07-23T14:56:06.381Z,95555.44
2018-07-23T14:58:35.466Z,95561.54
2018-07-23T15:03:40.314Z,95556.53
2018-07-23T15:06:10.067Z,95554.36
2018-07-23T15:11:15.590Z,95553.21
2018-07-23T15:13:44.672Z,95560.36
2018-07-23T15:18:52.857Z,95569.23
2018-07-23T15:23:57.785Z,95567.80
2018-07-23T15:26:30.334Z,95573.61
2018-07-23T15:28:59.825Z,95573.55
2018-07-23T15:31:28.906Z,95572.81
2018-07-23T15:33:57.970Z,95577.08
2018-07-23T15:36:31.337Z,95568.52
2018-07-23T15:39:01.354Z,95569.99
2018-07-23T15:41:30.610Z,95569.06
2018-07-23T15:46:35.672Z,95577.42
2018-07-23T15:49:04.725Z,95573.02
2018-07-23T15:51:35.766Z,95569.41
2018-07-23T15:54:04.849Z,95569.31
2018-07-23T15:56:37.992Z,95572.72
2018-07-23T15:59:07.049Z,95570.63
2018-07-23T16:01:41.250Z,95575.09
2018-07-23T16:09:22.669Z,95564.75
2018-07-23T16:11:52.693Z,95566.31
2018-07-23T16:16:57.673Z,95551.04
2018-07-23T16:19:26.744Z,95560.78
2018-07-23T16:22:00.364Z,95567.28
2018-07-23T16:24:29.465Z,95558.45
2018-07-23T16:27:00.511Z,95556.70
2018-07-23T16:29:29.689Z,95554.80
2018-07-23T16:34:34.588Z,95553.82
2018-07-23T16:39:39.208Z,95553.36
2018-07-23T16:42:08.536Z,95551.84
2018-07-23T16:44:39.765Z,95552.14
2018-07-23T16:47:08.809Z,95555.02
2018-07-23T16:49:38.884Z,95558.05
2018-07-23T16:52:17.436Z,95559.34
2018-07-23T16:54:48.726Z,95557.76
2018-07-23T16:57:17.773Z,95554.61
2018-07-23T16:59:48.833Z,95556.32
2018-07-23T17:02:17.857Z,95558.87
2018-07-23T17:04:47.368Z,95562.11
2018-07-23T17:07:16.440Z,95562.84
2018-07-23T17:09:48.695Z,95561.50
2018-07-23T17:12:17.796Z,95560.05
2018-07-23T17:14:47.886Z,95562.58
2018-07-23T17:17:16.960Z,95565.70
2018-07-23T17:19:46.037Z,95566.80
2018-07-23T17:24:52.113Z,95577.75
2018-07-23T17:27:23.088Z,95578.02
2018-07-23T17:29:53.124Z,95575.06
2018-07-23T17:32:23.188Z,95577.58
2018-07-23T17:34:52.261Z,95579.22
2018-07-23T17:37:23.504Z,95585.69
2018-07-23T17:39:54.540Z,95584.53
2018-07-23T17:42:33.979Z,95589.64
2018-07-23T17:45:04.089Z,95591.23
2018-07-23T17:47:33.091Z,95595.81
2018-07-23T17:52:39.506Z,95595.14
2018-07-23T17:55:08.646Z,95599.50
2018-07-23T17:57:37.749Z,95600.32
2018-07-23T18:00:07.984Z,95606.65
2018-07-23T18:02:45.953Z,95599.12
2018-07-23T18:05:16.070Z,95599.66
2018-07-23T18:07:46.205Z,95602.98
2018-07-23T18:10:17.333Z,95614.22
2018-07-23T18:12:46.409Z,95614.12
2018-07-23T18:15:16.417Z,95614.45
2018-07-23T18:20:21.301Z,95623.34
2018-07-23T18:22:54.569Z,95635.78
2018-07-23T18:30:35.195Z,95659.02
2018-07-23T18:33:04.274Z,95659.48
2018-07-23T18:38:09.193Z,95675.11
2018-07-23T18:40:38.235Z,95682.24
2018-07-23T18:43:07.346Z,95688.58
2018-07-23T18:45:38.388Z,95684.22
2018-07-23T18:48:07.450Z,95680.96
2018-07-23T18:50:36.501Z,95680.96
2018-07-23T18:53:06.581Z,95679.39
2018-07-23T18:55:35.661Z,95677.23
2018-07-23T18:58:06.733Z,95674.41
2018-07-23T19:05:47.365Z,95671.84
2018-07-23T19:08:20.316Z,95670.21
2018-07-23T19:10:50.345Z,95676.96
2018-07-23T19:13:24.049Z,95678.45
2018-07-23T19:15:57.793Z,95674.38
2018-07-23T19:18:28.806Z,95679.20
2018-07-23T19:26:11.686Z,95683.56
2018-07-23T19:28:41.691Z,95684.79
2018-07-23T19:31:12.759Z,95684.64
2018-07-23T19:33:41.819Z,95680.84
2018-07-23T19:36:12.859Z,95686.37
2018-07-23T19:38:41.937Z,95688.64
2018-07-23T19:43:46.741Z,95697.93
2018-07-23T19:46:15.803Z,95707.84
2018-07-23T19:48:46.852Z,95714.25
2018-07-23T19:51:15.927Z,95712.78
2018-07-23T19:56:20.761Z,95711.98
2018-07-23T19:58:58.094Z,95714.87
2018-07-23T20:01:29.132Z,95714.41
2018-07-23T20:04:00.110Z,95711.20
2018-07-23T20:06:32.773Z,95708.16
2018-07-23T20:11:37.628Z,95700.92
2018-07-23T20:14:08.697Z,95698.26
2018-07-23T20:16:37.758Z,95695.37
2018-07-23T20:19:10.534Z,95687.47
2018-07-23T20:21:50.693Z,95683.81
2018-07-23T20:24:19.789Z,95686.14
2018-07-23T20:26:48.845Z,95689.23
2018-07-23T20:29:17.921Z,95691.08
2018-07-23T20:31:47.900Z,95688.44
2018-07-23T20:34:16.976Z,95691.14
2018-07-23T20:36:46.047Z,95690.98
2018-07-23T20:39:15.114Z,95695.93
2018-07-23T20:44:20.007Z,95691.95
2018-07-23T20:46:49.049Z,95689.03
2018-07-23T20:49:18.115Z,95686.37
2018-07-23T20:51:47.174Z,95683.90
2018-07-23T20:54:20.353Z,95689.30
2018-07-23T20:59:26.231Z,95686.66
2018-07-23T21:02:00.034Z,95686.19
2018-07-23T21:04:31.099Z,95685.93
2018-07-23T21:12:11.828Z,95682.12
2018-07-23T21:14:40.892Z,95680.23
2018-07-23T21:22:27.306Z,95676.08
2018-07-23T21:25:02.374Z,95677.02
2018-07-23T21:27:31.391Z,95670.90
2018-07-23T21:30:00.459Z,95665.66
2018-07-23T21:32:37.125Z,95663.39
2018-07-23T21:35:19.805Z,95662.83
2018-07-23T21:40:24.612Z,95660.93
2018-07-23T21:42:53.748Z,95664.37
2018-07-23T21:45:22.877Z,95667.08
2018-07-23T21:47:51.960Z,95668.93
2018-07-23T21:52:56.746Z,95665.50
2018-07-23T21:58:01.598Z,95673.18
2018-07-23T22:00:30.714Z,95670.58
2018-07-23T22:05:40.039Z,95675.38
2018-07-23T22:13:20.693Z,95677.02
2018-07-23T22:15:49.797Z,95672.88
2018-07-23T22:18:18.890Z,95672.52
2018-07-23T22:20:47.961Z,95672.50
2018-07-23T22:23:17.048Z,95665.91
2018-07-23T22:25:47.080Z,95665.88
2018-07-23T22:30:51.933Z,95668.17
2018-07-23T22:33:26.225Z,95667.48
2018-07-23T22:35:56.253Z,95667.60
2018-07-23T22:38:27.299Z,95668.08
2018-07-23T22:41:01.625Z,95665.63
2018-07-23T22:43:30.707Z,95662.25
2018-07-23T22:45:59.789Z,95656.87
2018-07-23T22:51:04.590Z,95652.38
2018-07-23T22:53:33.659Z,95653.52
2018-07-23T22:56:06.348Z,95653.28
2018-07-23T22:58:37.407Z,95653.59
2018-07-23T23:01:10.190Z,95651.39
2018-07-23T23:06:15.044Z,95639.52
2018-07-23T23:08:44.117Z,95638.56
2018-07-23T23:11:14.129Z,95637.33
2018-07-23T23:13:43.201Z,95636.55
2018-07-23T23:16:15.705Z,95632.19
2018-07-23T23:18:44.845Z,95635.69
2018-07-23T23:21:19.230Z,95631.13
2018-07-23T23:23:48.312Z,95635.80
2018-07-23T23:26:17.378Z,95628.81
2018-07-23T23:28:50.948Z,95629.39
2018-07-23T23:33:56.309Z,95626.17
2018-07-23T23:36:25.441Z,95623.75
2018-07-23T23:38:54.526Z,95623.73
2018-07-23T23:43:59.375Z,95621.06
2018-07-23T23:46:28.446Z,95622.95
2018-07-23T23:48:57.507Z,95623.73
2018-07-23T23:51:26.585Z,95622.68
2018-07-23T23:53:55.668Z,95622.55
2018-07-23T23:56:26.697Z,95615.96
2018-07-23T23:58:55.769Z,95615.70
